sensor_id;sensor_type;location;lat;lon;timestamp;pressure;altitude;pressure_sealevel;temperature;humidity
72548;BME280;60570;50.848;6.776;2022-12-29T00:00:13;99379.91;;;10.46;74.06
72548;BME280;60570;50.848;6.776;2022-12-29T00:01:14;99378.44;;;10.52;74.21
72548;BME280;60570;50.848;6.776;2022-12-29T00:02:15;99364.88;;;10.47;74.29
72548;BME280;60570;50.848;6.776;2022-12-29T00:03:16;99368.78;;;10.46;74.53
72548;BME280;60570;50.848;6.776;2022-12-29T00:04:16;99364.78;;;10.43;74.19
72548;BME280;60570;50.848;6.776;2022-12-29T00:05:16;99357.53;;;10.39;74.35
72548;BME280;60570;50.848;6.776;2022-12-29T00:06:17;99356.66;;;10.35;74.83
72548;BME280;60570;50.848;6.776;2022-12-29T00:07:18;99350.91;;;10.43;74.81
72548;BME280;60570;50.848;6.776;2022-12-29T00:08:18;99355.28;;;10.44;74.60
72548;BME280;60570;50.848;6.776;2022-12-29T00:09:19;99350.97;;;10.47;74.46
72548;BME280;60570;50.848;6.776;2022-12-29T00:10:19;99348.41;;;10.38;74.85
72548;BME280;60570;50.848;6.776;2022-12-29T00:11:23;99358.06;;;10.44;74.72
72548;BME280;60570;50.848;6.776;2022-12-29T00:12:24;99365.75;;;10.51;74.85
72548;BME280;60570;50.848;6.776;2022-12-29T00:13:24;99357.63;;;10.42;74.97
72548;BME280;60570;50.848;6.776;2022-12-29T00:14:43;99359.84;;;10.52;74.25
72548;BME280;60570;50.848;6.776;2022-12-29T00:16:02;99351.94;;;10.54;74.31
72548;BME280;60570;50.848;6.776;2022-12-29T00:17:03;99361.09;;;10.55;74.13
72548;BME280;60570;50.848;6.776;2022-12-29T00:18:03;99350.13;;;10.62;74.06
72548;BME280;60570;50.848;6.776;2022-12-29T00:19:04;99357.19;;;10.59;74.04
72548;BME280;60570;50.848;6.776;2022-12-29T00:20:05;99351.19;;;10.57;73.62
72548;BME280;60570;50.848;6.776;2022-12-29T00:21:24;99342.09;;;10.57;74.03
72548;BME280;60570;50.848;6.776;2022-12-29T00:22:44;99347.72;;;10.60;74.41
72548;BME280;60570;50.848;6.776;2022-12-29T00:24:03;99344.13;;;10.60;73.96
72548;BME280;60570;50.848;6.776;2022-12-29T00:25:22;99341.03;;;10.65;73.80
72548;BME280;60570;50.848;6.776;2022-12-29T00:26:41;99346.59;;;10.65;73.72
72548;BME280;60570;50.848;6.776;2022-12-29T00:28:00;99335.34;;;10.58;73.70
72548;BME280;60570;50.848;6.776;2022-12-29T00:29:19;99328.47;;;10.52;74.61
72548;BME280;60570;50.848;6.776;2022-12-29T00:30:38;99334.59;;;10.42;74.80
72548;BME280;60570;50.848;6.776;2022-12-29T00:31:58;99341.09;;;10.49;74.61
72548;BME280;60570;50.848;6.776;2022-12-29T00:33:19;99341.84;;;10.46;74.89
72548;BME280;60570;50.848;6.776;2022-12-29T00:34:39;99334.84;;;10.52;74.11
72548;BME280;60570;50.848;6.776;2022-12-29T00:36:04;99333.81;;;10.60;74.36
72548;BME280;60570;50.848;6.776;2022-12-29T00:37:07;99338.13;;;10.58;73.95
72548;BME280;60570;50.848;6.776;2022-12-29T00:38:08;99340.34;;;10.68;73.98
72548;BME280;60570;50.848;6.776;2022-12-29T00:39:28;99324.38;;;10.65;73.98
72548;BME280;60570;50.848;6.776;2022-12-29T00:40:47;99333.09;;;10.63;73.88
72548;BME280;60570;50.848;6.776;2022-12-29T00:42:07;99332.28;;;10.63;73.95
72548;BME280;60570;50.848;6.776;2022-12-29T00:43:27;99336.53;;;10.57;74.42
72548;BME280;60570;50.848;6.776;2022-12-29T00:44:46;99334.53;;;10.57;74.44
72548;BME280;60570;50.848;6.776;2022-12-29T00:45:46;99335.41;;;10.61;74.10
72548;BME280;60570;50.848;6.776;2022-12-29T00:46:47;99329.94;;;10.65;73.99
72548;BME280;60570;50.848;6.776;2022-12-29T00:47:47;99329.66;;;10.70;73.80
72548;BME280;60570;50.848;6.776;2022-12-29T00:48:48;99328.84;;;10.69;73.74
72548;BME280;60570;50.848;6.776;2022-12-29T00:50:07;99331.50;;;10.62;74.05
72548;BME280;60570;50.848;6.776;2022-12-29T00:51:08;99330.59;;;10.58;74.01
72548;BME280;60570;50.848;6.776;2022-12-29T00:52:10;99333.09;;;10.63;73.70
72548;BME280;60570;50.848;6.776;2022-12-29T00:53:11;99340.34;;;10.68;73.53
72548;BME280;60570;50.848;6.776;2022-12-29T00:54:12;99341.03;;;10.65;73.75
72548;BME280;60570;50.848;6.776;2022-12-29T00:55:12;99328.72;;;10.62;73.94
72548;BME280;60570;50.848;6.776;2022-12-29T00:56:13;99334.03;;;10.71;73.74
72548;BME280;60570;50.848;6.776;2022-12-29T00:57:13;99335.16;;;10.66;73.82
72548;BME280;60570;50.848;6.776;2022-12-29T00:58:14;99329.22;;;10.68;73.95
72548;BME280;60570;50.848;6.776;2022-12-29T00:59:14;99324.03;;;10.66;74.04
72548;BME280;60570;50.848;6.776;2022-12-29T01:00:15;99325.69;;;10.71;73.77
72548;BME280;60570;50.848;6.776;2022-12-29T01:01:16;99318.63;;;10.73;73.61
72548;BME280;60570;50.848;6.776;2022-12-29T01:02:16;99310.00;;;10.59;73.97
72548;BME280;60570;50.848;6.776;2022-12-29T01:03:16;99314.97;;;10.69;73.88
72548;BME280;60570;50.848;6.776;2022-12-29T01:04:17;99308.25;;;10.70;73.56
72548;BME280;60570;50.848;6.776;2022-12-29T01:05:17;99312.25;;;10.73;73.94
72548;BME280;60570;50.848;6.776;2022-12-29T01:06:18;99314.16;;;10.69;74.09
72548;BME280;60570;50.848;6.776;2022-12-29T01:07:18;99299.94;;;10.70;73.69
72548;BME280;60570;50.848;6.776;2022-12-29T01:08:19;99301.97;;;10.73;73.41
72548;BME280;60570;50.848;6.776;2022-12-29T01:09:19;99313.88;;;10.74;73.78
72548;BME280;60570;50.848;6.776;2022-12-29T01:10:39;99321.78;;;10.72;73.90
72548;BME280;60570;50.848;6.776;2022-12-29T01:11:39;99323.81;;;10.75;73.77
72548;BME280;60570;50.848;6.776;2022-12-29T01:12:40;99326.28;;;10.61;74.08
72548;BME280;60570;50.848;6.776;2022-12-29T01:13:40;99329.72;;;10.73;73.76
72548;BME280;60570;50.848;6.776;2022-12-29T01:14:42;99327.03;;;10.77;73.83
72548;BME280;60570;50.848;6.776;2022-12-29T01:15:49;99338.50;;;10.75;73.91
72548;BME280;60570;50.848;6.776;2022-12-29T01:16:50;99327.69;;;10.70;73.74
72548;BME280;60570;50.848;6.776;2022-12-29T01:17:51;99325.88;;;10.78;73.70
72548;BME280;60570;50.848;6.776;2022-12-29T01:18:51;99322.94;;;10.71;73.80
72548;BME280;60570;50.848;6.776;2022-12-29T01:19:52;99327.69;;;10.70;73.50
72548;BME280;60570;50.848;6.776;2022-12-29T01:21:04;99330.75;;;10.65;74.11
72548;BME280;60570;50.848;6.776;2022-12-29T01:22:05;99338.44;;;10.72;73.60
72548;BME280;60570;50.848;6.776;2022-12-29T01:23:05;99333.91;;;10.64;73.98
72548;BME280;60570;50.848;6.776;2022-12-29T01:24:06;99332.81;;;10.68;73.79
72548;BME280;60570;50.848;6.776;2022-12-29T01:25:06;99332.56;;;10.77;73.81
72548;BME280;60570;50.848;6.776;2022-12-29T01:26:12;99328.22;;;10.76;73.50
72548;BME280;60570;50.848;6.776;2022-12-29T01:27:12;99323.81;;;10.75;73.23
72548;BME280;60570;50.848;6.776;2022-12-29T01:28:13;99329.06;;;10.61;73.78
72548;BME280;60570;50.848;6.776;2022-12-29T01:29:14;99323.28;;;10.69;73.48
72548;BME280;60570;50.848;6.776;2022-12-29T01:30:14;99324.63;;;10.75;73.70
72548;BME280;60570;50.848;6.776;2022-12-29T01:31:15;99327.78;;;10.74;73.76
72548;BME280;60570;50.848;6.776;2022-12-29T01:32:16;99320.31;;;10.78;73.54
72548;BME280;60570;50.848;6.776;2022-12-29T01:33:16;99323.53;;;10.80;73.25
72548;BME280;60570;50.848;6.776;2022-12-29T01:34:17;99321.16;;;10.63;73.72
72548;BME280;60570;50.848;6.776;2022-12-29T01:35:18;99325.84;;;10.59;74.05
72548;BME280;60570;50.848;6.776;2022-12-29T01:36:19;99323.22;;;10.66;73.48
72548;BME280;60570;50.848;6.776;2022-12-29T01:37:19;99319.88;;;10.76;73.57
72548;BME280;60570;50.848;6.776;2022-12-29T01:38:19;99317.09;;;10.76;73.59
72548;BME280;60570;50.848;6.776;2022-12-29T01:39:20;99314.38;;;10.79;73.18
72548;BME280;60570;50.848;6.776;2022-12-29T01:40:20;99319.13;;;10.79;73.06
72548;BME280;60570;50.848;6.776;2022-12-29T01:41:21;99323.09;;;10.78;73.24
72548;BME280;60570;50.848;6.776;2022-12-29T01:42:24;99319.50;;;10.77;72.83
72548;BME280;60570;50.848;6.776;2022-12-29T01:43:55;99313.88;;;10.74;73.13
72548;BME280;60570;50.848;6.776;2022-12-29T01:44:58;99310.78;;;10.79;73.20
72548;BME280;60570;50.848;6.776;2022-12-29T01:46:00;99305.25;;;10.79;73.00
72548;BME280;60570;50.848;6.776;2022-12-29T01:47:00;99318.41;;;10.82;73.14
72548;BME280;60570;50.848;6.776;2022-12-29T01:48:03;99313.28;;;10.84;72.69
72548;BME280;60570;50.848;6.776;2022-12-29T01:49:12;99310.06;;;10.82;72.88
72548;BME280;60570;50.848;6.776;2022-12-29T01:50:27;99314.81;;;10.81;72.95
72548;BME280;60570;50.848;6.776;2022-12-29T01:51:30;99309.63;;;10.80;72.98
72548;BME280;60570;50.848;6.776;2022-12-29T01:52:33;99302.09;;;10.80;72.86
72548;BME280;60570;50.848;6.776;2022-12-29T01:53:36;99300.00;;;10.74;72.75
72548;BME280;60570;50.848;6.776;2022-12-29T01:54:41;99302.41;;;10.75;72.75
72548;BME280;60570;50.848;6.776;2022-12-29T01:55:51;99306.19;;;10.67;72.80
72548;BME280;60570;50.848;6.776;2022-12-29T01:56:54;99287.19;;;10.69;73.00
72548;BME280;60570;50.848;6.776;2022-12-29T01:57:58;99285.22;;;10.70;72.68
72548;BME280;60570;50.848;6.776;2022-12-29T01:59:05;99280.63;;;10.77;72.75
72548;BME280;60570;50.848;6.776;2022-12-29T02:00:11;99288.94;;;10.77;72.57
72548;BME280;60570;50.848;6.776;2022-12-29T02:01:13;99291.78;;;10.81;72.49
72548;BME280;60570;50.848;6.776;2022-12-29T02:02:13;99283.38;;;10.77;72.44
72548;BME280;60570;50.848;6.776;2022-12-29T02:03:15;99287.63;;;10.71;72.76
72548;BME280;60570;50.848;6.776;2022-12-29T02:04:16;99291.84;;;10.84;72.28
72548;BME280;60570;50.848;6.776;2022-12-29T02:06:41;99285.34;;;10.77;72.34
72548;BME280;60570;50.848;6.776;2022-12-29T02:07:46;99276.47;;;10.68;72.63
72548;BME280;60570;50.848;6.776;2022-12-29T02:08:50;99290.19;;;10.61;72.92
72548;BME280;60570;50.848;6.776;2022-12-29T02:09:52;99282.72;;;10.65;72.81
72548;BME280;60570;50.848;6.776;2022-12-29T02:10:55;99289.97;;;10.69;72.87
72548;BME280;60570;50.848;6.776;2022-12-29T02:11:57;99292.75;;;10.69;72.61
72548;BME280;60570;50.848;6.776;2022-12-29T02:12:58;99288.13;;;10.77;72.58
72548;BME280;60570;50.848;6.776;2022-12-29T02:13:59;99285.66;;;10.72;72.36
72548;BME280;60570;50.848;6.776;2022-12-29T02:15:00;99283.81;;;10.79;72.26
72548;BME280;60570;50.848;6.776;2022-12-29T02:16:26;99283.81;;;10.79;72.29
72548;BME280;60570;50.848;6.776;2022-12-29T02:17:50;99275.50;;;10.79;72.16
72548;BME280;60570;50.848;6.776;2022-12-29T02:21:32;99278.88;;;10.69;72.59
72548;BME280;60570;50.848;6.776;2022-12-29T02:24:18;99279.09;;;10.80;72.15
72548;BME280;60570;50.848;6.776;2022-12-29T02:25:46;99277.03;;;10.77;72.44
72548;BME280;60570;50.848;6.776;2022-12-29T02:30:16;99270.59;;;10.73;72.56
72548;BME280;60570;50.848;6.776;2022-12-29T02:32:07;99262.25;;;10.73;72.36
72548;BME280;60570;50.848;6.776;2022-12-29T02:37:06;99266.16;;;10.68;72.76
72548;BME280;60570;50.848;6.776;2022-12-29T02:39:38;99261.88;;;10.74;72.55
72548;BME280;60570;50.848;6.776;2022-12-29T02:40:48;99253.94;;;10.73;72.62
72548;BME280;60570;50.848;6.776;2022-12-29T02:42:19;99261.47;;;10.72;72.66
72548;BME280;60570;50.848;6.776;2022-12-29T02:43:39;99272.06;;;10.67;72.76
72548;BME280;60570;50.848;6.776;2022-12-29T02:44:56;99258.75;;;10.76;72.48
72548;BME280;60570;50.848;6.776;2022-12-29T02:46:09;99265.91;;;10.77;72.45
72548;BME280;60570;50.848;6.776;2022-12-29T02:49:15;99258.31;;;10.74;72.62
72548;BME280;60570;50.848;6.776;2022-12-29T02:51:27;99261.31;;;10.65;73.21
72548;BME280;60570;50.848;6.776;2022-12-29T02:52:40;99260.59;;;10.68;73.26
72548;BME280;60570;50.848;6.776;2022-12-29T02:53:44;99261.09;;;10.74;72.71
72548;BME280;60570;50.848;6.776;2022-12-29T02:55:04;99250.00;;;10.74;72.63
72548;BME280;60570;50.848;6.776;2022-12-29T02:56:05;99249.41;;;10.65;73.27
72548;BME280;60570;50.848;6.776;2022-12-29T02:57:10;99248.31;;;10.69;73.23
72548;BME280;60570;50.848;6.776;2022-12-29T02:58:22;99246.34;;;10.70;73.22
72548;BME280;60570;50.848;6.776;2022-12-29T02:59:23;99254.88;;;10.61;73.36
72548;BME280;60570;50.848;6.776;2022-12-29T03:00:24;99252.50;;;10.60;73.50
72548;BME280;60570;50.848;6.776;2022-12-29T03:03:45;99242.75;;;10.69;73.45
72548;BME280;60570;50.848;6.776;2022-12-29T03:07:19;99245.47;;;10.66;73.58
72548;BME280;60570;50.848;6.776;2022-12-29T03:08:31;99249.78;;;10.63;73.78
72548;BME280;60570;50.848;6.776;2022-12-29T03:11:13;99251.91;;;10.70;73.46
72548;BME280;60570;50.848;6.776;2022-12-29T03:12:44;99247.94;;;10.71;73.36
72548;BME280;60570;50.848;6.776;2022-12-29T03:14:21;99243.63;;;10.73;73.61
72548;BME280;60570;50.848;6.776;2022-12-29T03:15:50;99249.31;;;10.80;73.29
72548;BME280;60570;50.848;6.776;2022-12-29T03:17:09;99245.59;;;10.73;73.56
72548;BME280;60570;50.848;6.776;2022-12-29T03:19:07;99230.56;;;10.74;73.72
72548;BME280;60570;50.848;6.776;2022-12-29T03:19:45;99230.56;;;10.74;73.54
72548;BME280;60570;50.848;6.776;2022-12-29T03:21:22;99223.88;;;10.78;73.55
72548;BME280;60570;50.848;6.776;2022-12-29T03:22:49;99235.78;;;10.79;73.19
72548;BME280;60570;50.848;6.776;2022-12-29T03:23:51;99224.69;;;10.79;73.34
72548;BME280;60570;50.848;6.776;2022-12-29T03:26:08;99214.50;;;10.87;73.08
72548;BME280;60570;50.848;6.776;2022-12-29T03:27:14;99214.44;;;10.83;73.19
72548;BME280;60570;50.848;6.776;2022-12-29T03:28:21;99231.13;;;10.83;73.28
72548;BME280;60570;50.848;6.776;2022-12-29T03:29:23;99227.66;;;10.90;73.16
72548;BME280;60570;50.848;6.776;2022-12-29T03:30:26;99219.63;;;10.84;73.37
72548;BME280;60570;50.848;6.776;2022-12-29T03:31:27;99229.63;;;10.89;73.22
72548;BME280;60570;50.848;6.776;2022-12-29T03:32:32;99230.50;;;10.93;72.99
72548;BME280;60570;50.848;6.776;2022-12-29T03:33:35;99239.22;;;10.92;73.00
72548;BME280;60570;50.848;6.776;2022-12-29T03:34:38;99227.28;;;10.91;73.02
72548;BME280;60570;50.848;6.776;2022-12-29T03:35:41;99248.22;;;10.85;73.23
72548;BME280;60570;50.848;6.776;2022-12-29T03:36:49;99248.59;;;10.83;73.36
72548;BME280;60570;50.848;6.776;2022-12-29T03:38:09;99239.94;;;10.89;73.14
72548;BME280;60570;50.848;6.776;2022-12-29T03:39:12;99238.28;;;10.84;73.47
72548;BME280;60570;50.848;6.776;2022-12-29T03:40:13;99231.97;;;10.87;73.43
72548;BME280;60570;50.848;6.776;2022-12-29T03:41:18;99238.06;;;10.73;73.67
72548;BME280;60570;50.848;6.776;2022-12-29T03:42:23;99227.41;;;10.75;73.64
72548;BME280;60570;50.848;6.776;2022-12-29T03:43:26;99212.84;;;10.82;73.57
72548;BME280;60570;50.848;6.776;2022-12-29T03:44:36;99213.34;;;10.88;73.08
72548;BME280;60570;50.848;6.776;2022-12-29T03:45:37;99200.66;;;10.90;73.27
72548;BME280;60570;50.848;6.776;2022-12-29T03:46:38;99205.50;;;10.93;72.84
72548;BME280;60570;50.848;6.776;2022-12-29T03:47:38;99198.31;;;10.92;72.93
72548;BME280;60570;50.848;6.776;2022-12-29T03:48:39;99196.31;;;10.89;73.37
72548;BME280;60570;50.848;6.776;2022-12-29T03:49:39;99207.78;;;10.88;73.58
72548;BME280;60570;50.848;6.776;2022-12-29T03:50:40;99197.47;;;10.88;73.41
72548;BME280;60570;50.848;6.776;2022-12-29T03:51:41;99192.66;;;10.85;73.42
72548;BME280;60570;50.848;6.776;2022-12-29T03:52:41;99184.69;;;10.83;73.48
72548;BME280;60570;50.848;6.776;2022-12-29T03:53:41;99191.78;;;10.81;73.14
72548;BME280;60570;50.848;6.776;2022-12-29T03:54:42;99181.34;;;10.74;73.71
72548;BME280;60570;50.848;6.776;2022-12-29T03:55:42;99196.78;;;10.72;73.80
72548;BME280;60570;50.848;6.776;2022-12-29T03:56:43;99189.28;;;10.72;73.86
72548;BME280;60570;50.848;6.776;2022-12-29T03:57:43;99188.94;;;10.77;73.53
72548;BME280;60570;50.848;6.776;2022-12-29T03:58:43;99201.16;;;10.73;73.87
72548;BME280;60570;50.848;6.776;2022-12-29T03:59:44;99204.75;;;10.73;74.01
72548;BME280;60570;50.848;6.776;2022-12-29T04:00:44;99196.47;;;10.77;73.80
72548;BME280;60570;50.848;6.776;2022-12-29T04:01:45;99197.28;;;10.77;73.46
72548;BME280;60570;50.848;6.776;2022-12-29T04:02:46;99195.53;;;10.69;73.96
72548;BME280;60570;50.848;6.776;2022-12-29T04:03:47;99183.28;;;10.70;73.65
72548;BME280;60570;50.848;6.776;2022-12-29T04:04:47;99186.16;;;10.77;73.58
72548;BME280;60570;50.848;6.776;2022-12-29T04:05:47;99184.69;;;10.83;73.51
72548;BME280;60570;50.848;6.776;2022-12-29T04:06:48;99181.09;;;10.83;73.14
72548;BME280;60570;50.848;6.776;2022-12-29T04:07:48;99189.28;;;10.72;73.73
72548;BME280;60570;50.848;6.776;2022-12-29T04:08:49;99174.41;;;10.65;73.76
72548;BME280;60570;50.848;6.776;2022-12-29T04:09:49;99187.22;;;10.69;73.98
72548;BME280;60570;50.848;6.776;2022-12-29T04:10:49;99185.78;;;10.79;73.52
72548;BME280;60570;50.848;6.776;2022-12-29T04:11:50;99182.59;;;10.77;73.63
72548;BME280;60570;50.848;6.776;2022-12-29T04:12:50;99185.25;;;10.70;73.71
72548;BME280;60570;50.848;6.776;2022-12-29T04:13:51;99182.47;;;10.70;73.97
72548;BME280;60570;50.848;6.776;2022-12-29T04:14:51;99182.28;;;10.82;73.66
72548;BME280;60570;50.848;6.776;2022-12-29T04:15:51;99188.63;;;10.82;73.38
72548;BME280;60570;50.848;6.776;2022-12-29T04:16:52;99183.41;;;10.77;73.41
72548;BME280;60570;50.848;6.776;2022-12-29T04:17:54;99179.53;;;10.82;73.50
72548;BME280;60570;50.848;6.776;2022-12-29T04:18:54;99179.09;;;10.80;73.30
72548;BME280;60570;50.848;6.776;2022-12-29T04:19:55;99189.75;;;10.78;73.32
72548;BME280;60570;50.848;6.776;2022-12-29T04:21:15;99179.00;;;10.76;73.53
72548;BME280;60570;50.848;6.776;2022-12-29T04:22:15;99174.94;;;10.70;74.02
72548;BME280;60570;50.848;6.776;2022-12-29T04:23:16;99179.19;;;10.64;73.87
72548;BME280;60570;50.848;6.776;2022-12-29T04:24:16;99179.75;;;10.73;73.73
72548;BME280;60570;50.848;6.776;2022-12-29T04:25:17;99176.91;;;10.70;73.94
72548;BME280;60570;50.848;6.776;2022-12-29T04:26:17;99176.22;;;10.76;73.60
72548;BME280;60570;50.848;6.776;2022-12-29T04:27:18;99175.94;;;10.81;73.48
72548;BME280;60570;50.848;6.776;2022-12-29T04:28:18;99167.28;;;10.87;73.44
72548;BME280;60570;50.848;6.776;2022-12-29T04:29:19;99170.91;;;10.91;73.06
72548;BME280;60570;50.848;6.776;2022-12-29T04:30:19;99171.09;;;10.78;73.45
72548;BME280;60570;50.848;6.776;2022-12-29T04:31:20;99157.66;;;10.80;73.56
72548;BME280;60570;50.848;6.776;2022-12-29T04:32:20;99176.22;;;10.76;73.30
72548;BME280;60570;50.848;6.776;2022-12-29T04:33:22;99177.03;;;10.77;73.72
72548;BME280;60570;50.848;6.776;2022-12-29T04:34:22;99165.19;;;10.80;73.56
72548;BME280;60570;50.848;6.776;2022-12-29T04:35:23;99174.41;;;10.84;73.26
72548;BME280;60570;50.848;6.776;2022-12-29T04:36:23;99171.19;;;10.82;73.23
72548;BME280;60570;50.848;6.776;2022-12-29T04:37:24;99190.03;;;10.73;73.56
72548;BME280;60570;50.848;6.776;2022-12-29T04:38:24;99193.75;;;10.80;73.81
72548;BME280;60570;50.848;6.776;2022-12-29T04:39:25;99191.34;;;10.79;73.56
72548;BME280;60570;50.848;6.776;2022-12-29T04:40:25;99209.56;;;10.76;73.39
72548;BME280;60570;50.848;6.776;2022-12-29T04:41:25;99199.63;;;10.75;73.48
72548;BME280;60570;50.848;6.776;2022-12-29T04:42:26;99204.44;;;10.78;73.71
72548;BME280;60570;50.848;6.776;2022-12-29T04:43:27;99208.81;;;10.79;73.76
72548;BME280;60570;50.848;6.776;2022-12-29T04:44:28;99214.81;;;10.81;73.45
72548;BME280;60570;50.848;6.776;2022-12-29T04:45:28;99214.00;;;10.81;73.59
72548;BME280;60570;50.848;6.776;2022-12-29T04:46:29;99210.41;;;10.80;73.30
72548;BME280;60570;50.848;6.776;2022-12-29T04:47:29;99217.53;;;10.78;73.41
72548;BME280;60570;50.848;6.776;2022-12-29T04:48:29;99212.75;;;10.78;73.66
72548;BME280;60570;50.848;6.776;2022-12-29T04:49:30;99212.31;;;10.76;73.66
72548;BME280;60570;50.848;6.776;2022-12-29T04:50:30;99206.22;;;10.67;73.78
72548;BME280;60570;50.848;6.776;2022-12-29T04:51:31;99214.31;;;10.76;73.06
72548;BME280;60570;50.848;6.776;2022-12-29T04:52:31;99215.84;;;10.73;73.29
72548;BME280;60570;50.848;6.776;2022-12-29T04:53:32;99223.69;;;10.68;73.58
72548;BME280;60570;50.848;6.776;2022-12-29T04:54:32;99216.72;;;10.77;73.66
72548;BME280;60570;50.848;6.776;2022-12-29T04:55:33;99219.00;;;10.72;73.47
72548;BME280;60570;50.848;6.776;2022-12-29T04:56:33;99206.88;;;10.80;73.04
72548;BME280;60570;50.848;6.776;2022-12-29T04:57:34;99216.06;;;10.84;73.00
72548;BME280;60570;50.848;6.776;2022-12-29T04:58:35;99205.31;;;10.82;73.21
72548;BME280;60570;50.848;6.776;2022-12-29T04:59:36;99211.97;;;10.78;73.26
72548;BME280;60570;50.848;6.776;2022-12-29T05:00:36;99203.22;;;10.76;73.24
72548;BME280;60570;50.848;6.776;2022-12-29T05:01:36;99199.25;;;10.77;73.27
72548;BME280;60570;50.848;6.776;2022-12-29T05:02:37;99196.53;;;10.80;73.08
72548;BME280;60570;50.848;6.776;2022-12-29T05:03:37;99210.13;;;10.86;72.88
72548;BME280;60570;50.848;6.776;2022-12-29T05:04:38;99201.41;;;10.87;72.59
72548;BME280;60570;50.848;6.776;2022-12-29T05:05:38;99196.97;;;10.82;72.46
72548;BME280;60570;50.848;6.776;2022-12-29T05:06:39;99191.66;;;10.74;73.09
72548;BME280;60570;50.848;6.776;2022-12-29T05:07:40;99205.25;;;10.79;73.02
72548;BME280;60570;50.848;6.776;2022-12-29T05:08:40;99196.97;;;10.82;72.86
72548;BME280;60570;50.848;6.776;2022-12-29T05:09:40;99206.13;;;10.83;72.59
72548;BME280;60570;50.848;6.776;2022-12-29T05:10:44;99201.81;;;10.86;72.39
72548;BME280;60570;50.848;6.776;2022-12-29T05:11:45;99197.97;;;10.94;72.53
72548;BME280;60570;50.848;6.776;2022-12-29T05:12:46;99201.41;;;10.87;72.36
72548;BME280;60570;50.848;6.776;2022-12-29T05:13:46;99204.16;;;10.83;72.05
72548;BME280;60570;50.848;6.776;2022-12-29T05:14:47;99204.44;;;10.78;72.80
72548;BME280;60570;50.848;6.776;2022-12-29T05:15:52;99215.47;;;10.75;72.87
72548;BME280;60570;50.848;6.776;2022-12-29T05:16:53;99219.94;;;10.79;72.36
72548;BME280;60570;50.848;6.776;2022-12-29T05:17:54;99219.56;;;10.81;72.94
72548;BME280;60570;50.848;6.776;2022-12-29T05:18:54;99217.16;;;10.79;72.40
72548;BME280;60570;50.848;6.776;2022-12-29T05:19:54;99235.84;;;10.82;72.43
72548;BME280;60570;50.848;6.776;2022-12-29T05:20:55;99239.00;;;10.81;72.55
72548;BME280;60570;50.848;6.776;2022-12-29T05:21:55;99232.16;;;10.75;72.82
72548;BME280;60570;50.848;6.776;2022-12-29T05:22:56;99228.66;;;10.78;72.89
72548;BME280;60570;50.848;6.776;2022-12-29T05:23:56;99224.69;;;10.79;72.36
72548;BME280;60570;50.848;6.776;2022-12-29T05:24:56;99248.88;;;10.78;72.57
72548;BME280;60570;50.848;6.776;2022-12-29T05:25:57;99234.97;;;10.78;72.56
72548;BME280;60570;50.848;6.776;2022-12-29T05:26:57;99242.88;;;10.76;72.72
72548;BME280;60570;50.848;6.776;2022-12-29T05:27:58;99231.44;;;10.78;72.44
72548;BME280;60570;50.848;6.776;2022-12-29T05:28:58;99220.31;;;10.78;72.87
72548;BME280;60570;50.848;6.776;2022-12-29T05:30:00;99218.13;;;10.68;72.71
72548;BME280;60570;50.848;6.776;2022-12-29T05:31:00;99227.91;;;10.81;72.80
72548;BME280;60570;50.848;6.776;2022-12-29T05:32:00;99223.53;;;10.80;72.36
72548;BME280;60570;50.848;6.776;2022-12-29T05:33:01;99223.53;;;10.80;72.46
72548;BME280;60570;50.848;6.776;2022-12-29T05:34:02;99234.97;;;10.78;72.32
72548;BME280;60570;50.848;6.776;2022-12-29T05:35:03;99223.53;;;10.80;72.48
72548;BME280;60570;50.848;6.776;2022-12-29T05:36:05;99216.72;;;10.77;72.77
72548;BME280;60570;50.848;6.776;2022-12-29T05:37:06;99230.50;;;10.70;72.75
72548;BME280;60570;50.848;6.776;2022-12-29T05:38:06;99231.78;;;10.76;72.49
72548;BME280;60570;50.848;6.776;2022-12-29T05:39:07;99236.97;;;10.78;72.81
72548;BME280;60570;50.848;6.776;2022-12-29T05:40:08;99242.22;;;10.83;72.54
72548;BME280;60570;50.848;6.776;2022-12-29T05:41:08;99246.91;;;10.79;72.57
72548;BME280;60570;50.848;6.776;2022-12-29T05:42:09;99243.41;;;10.82;72.53
72548;BME280;60570;50.848;6.776;2022-12-29T05:43:09;99235.41;;;10.80;72.44
72548;BME280;60570;50.848;6.776;2022-12-29T05:44:10;99235.06;;;10.82;72.58
72548;BME280;60570;50.848;6.776;2022-12-29T05:45:11;99245.66;;;10.76;72.54
72548;BME280;60570;50.848;6.776;2022-12-29T05:46:12;99250.50;;;10.79;72.46
72548;BME280;60570;50.848;6.776;2022-12-29T05:47:12;99252.72;;;10.70;72.94
72548;BME280;60570;50.848;6.776;2022-12-29T05:48:13;99244.38;;;10.70;72.49
72548;BME280;60570;50.848;6.776;2022-12-29T05:49:13;99257.88;;;10.72;72.83
72548;BME280;60570;50.848;6.776;2022-12-29T05:50:14;99263.50;;;10.75;72.89
72548;BME280;60570;50.848;6.776;2022-12-29T05:51:14;99268.63;;;10.73;72.72
72548;BME280;60570;50.848;6.776;2022-12-29T05:52:15;99267.88;;;10.76;72.49
72548;BME280;60570;50.848;6.776;2022-12-29T05:53:16;99259.97;;;10.78;72.64
72548;BME280;60570;50.848;6.776;2022-12-29T05:54:16;99262.09;;;10.85;72.25
72548;BME280;60570;50.848;6.776;2022-12-29T05:55:17;99264.44;;;10.83;72.35
72548;BME280;60570;50.848;6.776;2022-12-29T05:56:17;99259.41;;;10.69;72.67
72548;BME280;60570;50.848;6.776;2022-12-29T05:57:18;99263.81;;;10.70;72.68
72548;BME280;60570;50.848;6.776;2022-12-29T05:58:18;99257.44;;;10.70;72.68
72548;BME280;60570;50.848;6.776;2022-12-29T05:59:18;99256.84;;;10.80;72.86
72548;BME280;60570;50.848;6.776;2022-12-29T06:00:19;99257.16;;;10.75;72.66
72548;BME280;60570;50.848;6.776;2022-12-29T06:01:20;99258.41;;;10.77;72.31
72548;BME280;60570;50.848;6.776;2022-12-29T06:02:20;99254.09;;;10.80;72.85
72548;BME280;60570;50.848;6.776;2022-12-29T06:03:21;99255.13;;;10.72;72.63
72548;BME280;60570;50.848;6.776;2022-12-29T06:04:21;99253.38;;;10.64;73.14
72548;BME280;60570;50.848;6.776;2022-12-29T06:05:21;99248.81;;;10.75;72.64